Bakhtiyar Vahabzade — 9HA3100 — position and weather

sailwx.info

Track history (hours):
 
Tides and Currents Weather Stations Pressure Air Temp Water Temp Dewpoint Dewpoint Depression Visibility Wind Speed Wind Dir Waves Ship Positions

Bakhtiyar Vahabzade

Last reported at 2018-Jun-22 10:29 UTC. Time now 2018-Jun-22 11:14 UTC.
Position N 45°11' E 036°28'.

; draft 3.9 m.

Type: Ship (hazmat cat B). MMSI: 229139000.

Date/timePositionNaut miles runAvg speedWind from/ knotsBaromVisibWave heightAir tempDewpointWater temp
2018-Jun-22 10:29N 45°11' E 036°28'5 9.2
2018-Jun-22 09:56N 45°16' E 036°28'4 6.7
2018-Jun-22 09:17N 45°19' E 036°33'310.1
2018-Jun-22 08:58N 45°20' E 036°37'4 8.8
2018-Jun-22 08:30N 45°24' E 036°40'4 6.8
2018-Jun-22 07:58N 45°27' E 036°42'5 9.3
2018-Jun-22 07:24N 45°32' E 036°44'5 9.5
2018-Jun-22 06:50N 45°37' E 036°47'18 9.4
2018-Jun-22 04:53N 45°54' E 036°56'5 9.3
2018-Jun-22 04:22N 45°59' E 036°59'3 9.3
2018-Jun-22 04:00N 46°02' E 037°01'  
2018-Jun-16 23:24N 45°34' E 036°49'4 9.7
2018-Jun-16 23:00N 45°31' E 036°46'6 9.5
2018-Jun-16 22:23N 45°26' E 036°42'4 9.5
2018-Jun-16 22:00N 45°22' E 036°40'4 8.1
2018-Jun-16 21:30N 45°20' E 036°35'9 6.0
2018-Jun-16 20:00N 45°12' E 036°30'0 0.1
2018-Jun-16 19:20N 45°12' E 036°30'0 0.1
2018-Jun-16 18:59N 45°12' E 036°30'0 0.1
2018-Jun-16 18:23N 45°12' E 036°30'0 0.0
2018-Jun-16 17:50N 45°12' E 036°30'0 0.0
2018-Jun-16 17:29N 45°12' E 036°30'0 0.1
2018-Jun-16 16:11N 45°12' E 036°30'1 4.1
2018-Jun-16 16:00N 45°11' E 036°30'5 9.7
2018-Jun-16 15:30N 45°06' E 036°30'5 9.9
2018-Jun-16 15:01N 45°01' E 036°31'7 0.5
2018-Jun-16 01:14N 44°55' E 036°36'10 9.3
2018-Jun-16 00:12N 45°03' E 036°29'3 9.4
2018-Jun-15 23:51N 45°06' E 036°30'3 9.2
2018-Jun-15 23:30N 45°09' E 036°28'5 9.3
2018-Jun-15 23:00N 45°14' E 036°28'4 7.8
2018-Jun-15 22:28N 45°18' E 036°29'3 6.7
2018-Jun-15 22:00N 45°19' E 036°33'5 9.4
2018-Jun-15 21:30N 45°21' E 036°39'3 6.9
2018-Jun-15 21:00N 45°25' E 036°40'3 5.9
2018-Jun-15 20:30N 45°28' E 036°39'1 0.1
2018-Jun-15 12:56N 45°28' E 036°39'1 2.4
2018-Jun-15 12:30N 45°29' E 036°40'4 9.0
2018-Jun-15 12:00N 45°32' E 036°44'7 9.2
2018-Jun-15 11:12N 45°39' E 036°48'  
Track history (hours):
 
Tides and Currents Weather Stations Pressure Air Temp Water Temp Dewpoint Dewpoint Depression Visibility Wind Speed Wind Dir Waves Ship Positions

Bakhtiyar Vahabzade

Last reported at 2018-Jun-22 10:29 UTC. Time now 2018-Jun-22 11:14 UTC.
Position N 45°11' E 036°28'.

; draft 3.9 m.

Type: Ship (hazmat cat B). MMSI: 229139000.

Date/timePositionNaut miles runAvg speedWind from/ knotsBaromVisibWave heightAir tempDewpointWater temp
2018-Jun-22 10:29N 45°11' E 036°28'5 9.2
2018-Jun-22 09:56N 45°16' E 036°28'4 6.7
2018-Jun-22 09:17N 45°19' E 036°33'310.1
2018-Jun-22 08:58N 45°20' E 036°37'4 8.8
2018-Jun-22 08:30N 45°24' E 036°40'4 6.8
2018-Jun-22 07:58N 45°27' E 036°42'5 9.3
2018-Jun-22 07:24N 45°32' E 036°44'5 9.5
2018-Jun-22 06:50N 45°37' E 036°47'18 9.4
2018-Jun-22 04:53N 45°54' E 036°56'5 9.3
2018-Jun-22 04:22N 45°59' E 036°59'3 9.3
2018-Jun-22 04:00N 46°02' E 037°01'  
2018-Jun-16 23:24N 45°34' E 036°49'4 9.7
2018-Jun-16 23:00N 45°31' E 036°46'6 9.5
2018-Jun-16 22:23N 45°26' E 036°42'4 9.5
2018-Jun-16 22:00N 45°22' E 036°40'4 8.1
2018-Jun-16 21:30N 45°20' E 036°35'9 6.0
2018-Jun-16 20:00N 45°12' E 036°30'0 0.1
2018-Jun-16 19:20N 45°12' E 036°30'0 0.1
2018-Jun-16 18:59N 45°12' E 036°30'0 0.1
2018-Jun-16 18:23N 45°12' E 036°30'0 0.0
2018-Jun-16 17:50N 45°12' E 036°30'0 0.0
2018-Jun-16 17:29N 45°12' E 036°30'0 0.1
2018-Jun-16 16:11N 45°12' E 036°30'1 4.1
2018-Jun-16 16:00N 45°11' E 036°30'5 9.7
2018-Jun-16 15:30N 45°06' E 036°30'5 9.9
2018-Jun-16 15:01N 45°01' E 036°31'7 0.5
2018-Jun-16 01:14N 44°55' E 036°36'10 9.3
2018-Jun-16 00:12N 45°03' E 036°29'3 9.4
2018-Jun-15 23:51N 45°06' E 036°30'3 9.2
2018-Jun-15 23:30N 45°09' E 036°28'5 9.3
2018-Jun-15 23:00N 45°14' E 036°28'4 7.8
2018-Jun-15 22:28N 45°18' E 036°29'3 6.7
2018-Jun-15 22:00N 45°19' E 036°33'5 9.4
2018-Jun-15 21:30N 45°21' E 036°39'3 6.9
2018-Jun-15 21:00N 45°25' E 036°40'3 5.9
2018-Jun-15 20:30N 45°28' E 036°39'1 0.1
2018-Jun-15 12:56N 45°28' E 036°39'1 2.4
2018-Jun-15 12:30N 45°29' E 036°40'4 9.0
2018-Jun-15 12:00N 45°32' E 036°44'7 9.2
2018-Jun-15 11:12N 45°39' E 036°48'  

Dump ship's entire track history